Terminal Aerodrome Forecast
Issued by NWS

Home | Current Version | Previous Version | Text Only | Print | Product List | Glossary On
Versions: 1 2 3 4 5 6 7 8 9 10 11 12 13 14 15 16 17 18 19 20 21 22 23 24 25 26 27 28 29
000
FTUS41 KOKX 020800 AAA
TAFTEB
TAF AMD
KTEB 020820Z 0208/0306 02005KT P6SM OVC015
      TEMPO 0208/0210 OVC020
     FM021500 01009KT P6SM OVC025
     FM021900 03008KT P6SM BKN035
     FM022100 04007KT P6SM FEW035 BKN080
     FM030000 04004KT P6SM SCT030 SCT080=

USA.gov is the U.S. government's official web portal to all federal, state and local government web resources and services.